createdAt,value
2019-05-30T00:00:34.148Z,9.00
2019-05-30T00:03:18.804Z,8.90
2019-05-30T00:06:04.609Z,8.80
2019-05-30T00:08:49.574Z,8.60
2019-05-30T00:11:34.085Z,8.60
2019-05-30T00:14:27.552Z,8.60
2019-05-30T00:17:12.549Z,8.60
2019-05-30T00:19:56.997Z,8.60
2019-05-30T00:22:41.559Z,8.60
2019-05-30T00:25:25.712Z,8.50
2019-05-30T00:28:19.016Z,8.50
2019-05-30T00:31:04.730Z,8.70
2019-05-30T00:33:59.575Z,8.60
2019-05-30T00:36:44.734Z,8.50
2019-05-30T00:39:29.578Z,8.60
2019-05-30T00:42:23.590Z,8.60
2019-05-30T00:45:20.178Z,8.50
2019-05-30T00:47:54.586Z,8.50
2019-05-30T00:50:39.606Z,8.50
2019-05-30T00:53:24.123Z,8.70
2019-05-30T00:56:09.158Z,8.90
2019-05-30T00:58:53.826Z,8.90
2019-05-30T01:01:38.742Z,8.90
2019-05-30T01:04:24.583Z,8.80
2019-05-30T01:07:09.776Z,8.80
2019-05-30T01:09:54.867Z,8.60
2019-05-30T01:12:48.898Z,8.50
2019-05-30T01:15:33.269Z,8.40
2019-05-30T01:18:17.926Z,8.20
2019-05-30T01:21:03.253Z,8.10
2019-05-30T01:23:48.113Z,8.10
2019-05-30T01:26:32.977Z,8.20
2019-05-30T01:29:17.562Z,8.30
2019-05-30T01:32:21.219Z,8.40
2019-05-30T01:35:06.294Z,8.40
2019-05-30T01:37:50.787Z,8.40
2019-05-30T01:40:35.727Z,8.40
2019-05-30T01:43:20.978Z,8.40
2019-05-30T01:46:06.191Z,8.40
2019-05-30T01:49:00.224Z,8.50
2019-05-30T01:51:54.119Z,8.40
2019-05-30T01:54:48.090Z,8.40
2019-05-30T01:57:32.414Z,8.40
2019-05-30T02:00:21.189Z,8.40
2019-05-30T02:03:03.206Z,8.40
2019-05-30T02:05:48.125Z,8.40
2019-05-30T02:08:33.070Z,8.40
2019-05-30T02:11:17.910Z,8.40
2019-05-30T02:14:03.586Z,8.40
2019-05-30T02:16:57.415Z,8.40
2019-05-30T02:19:42.109Z,8.40
2019-05-30T02:22:27.054Z,8.40
2019-05-30T02:25:12.930Z,8.40
2019-05-30T02:27:57.682Z,8.40
2019-05-30T02:30:42.239Z,8.40
2019-05-30T02:33:27.464Z,8.50
2019-05-30T02:36:12.928Z,8.40
2019-05-30T02:39:07.564Z,8.20
2019-05-30T02:42:03.229Z,8.10
2019-05-30T02:44:48.909Z,8.00
2019-05-30T02:47:34.131Z,8.00
2019-05-30T02:50:27.703Z,8.10
2019-05-30T02:53:13.251Z,8.30
2019-05-30T02:55:58.209Z,8.50
2019-05-30T02:58:42.951Z,8.70
2019-05-30T03:01:27.955Z,8.50
2019-05-30T03:04:13.197Z,8.40
2019-05-30T03:06:57.763Z,8.40
2019-05-30T03:09:42.374Z,8.40
2019-05-30T03:12:27.219Z,8.30
2019-05-30T03:15:14.897Z,8.30
2019-05-30T03:17:59.132Z,8.20
2019-05-30T03:20:43.925Z,8.20
2019-05-30T03:23:29.156Z,8.30
2019-05-30T03:26:22.675Z,8.30
2019-05-30T03:29:09.491Z,8.30
2019-05-30T03:31:53.775Z,8.30
2019-05-30T03:34:38.966Z,8.40
2019-05-30T03:37:33.009Z,8.30
2019-05-30T03:40:28.185Z,8.40
2019-05-30T03:43:13.899Z,8.30
2019-05-30T03:45:59.571Z,8.50
2019-05-30T03:48:44.155Z,8.60
2019-05-30T03:51:28.610Z,8.70
2019-05-30T03:54:15.803Z,8.60
2019-05-30T03:57:00.508Z,8.50
2019-05-30T03:59:45.829Z,8.40
2019-05-30T04:02:56.049Z,8.30
2019-05-30T04:05:26.046Z,8.20
2019-05-30T04:08:12.350Z,8.10
2019-05-30T04:10:57.779Z,8.10
2019-05-30T04:13:51.399Z,8.00
2019-05-30T04:16:36.218Z,8.10
2019-05-30T04:19:20.954Z,8.10
2019-05-30T04:22:07.801Z,8.30
2019-05-30T04:25:02.736Z,8.40
2019-05-30T04:27:47.643Z,8.50
2019-05-30T04:30:32.214Z,8.50
2019-05-30T04:33:31.551Z,8.50
2019-05-30T04:36:12.714Z,8.60
2019-05-30T04:38:57.823Z,8.80
2019-05-30T04:41:42.478Z,8.90
2019-05-30T04:44:27.179Z,8.90
2019-05-30T04:47:14.254Z,9.10
2019-05-30T04:50:00.138Z,9.20
2019-05-30T04:52:45.375Z,9.40
2019-05-30T04:55:39.438Z,9.60
2019-05-30T04:58:33.076Z,9.80
2019-05-30T05:01:20.273Z,10.10
2019-05-30T05:04:15.351Z,10.20
2019-05-30T05:07:00.203Z,10.30
2019-05-30T05:09:44.646Z,10.40
2019-05-30T05:12:29.039Z,10.60
2019-05-30T05:15:14.338Z,10.70
2019-05-30T05:17:59.432Z,10.80
2019-05-30T05:20:44.274Z,11.10
2019-05-30T05:23:29.361Z,11.30
2019-05-30T05:26:23.629Z,11.50
2019-05-30T05:29:17.916Z,11.70
2019-05-30T05:32:02.725Z,11.90
2019-05-30T05:34:56.323Z,12.10
2019-05-30T05:37:40.623Z,12.20
2019-05-30T05:40:25.558Z,12.40
2019-05-30T05:43:10.158Z,12.60
2019-05-30T05:45:54.919Z,12.70
2019-05-30T05:48:39.702Z,12.90
2019-05-30T05:51:24.826Z,13.10
2019-05-30T05:54:10.187Z,13.30
2019-05-30T05:57:04.228Z,13.40
2019-05-30T05:59:58.643Z,13.50
2019-05-30T06:02:52.342Z,13.70
2019-05-30T06:05:51.984Z,13.70
2019-05-30T06:08:23.784Z,13.70
2019-05-30T06:11:18.658Z,13.80
2019-05-30T06:14:03.545Z,13.90
2019-05-30T06:16:48.177Z,13.90
2019-05-30T06:19:46.087Z,14.00
2019-05-30T06:22:19.568Z,14.10
2019-05-30T06:25:04.773Z,14.20
2019-05-30T06:27:49.954Z,14.30
2019-05-30T06:30:43.846Z,14.40
2019-05-30T06:33:29.169Z,14.50
2019-05-30T06:36:23.078Z,14.60
2019-05-30T06:39:09.618Z,14.70
2019-05-30T06:42:03.327Z,14.90
2019-05-30T06:44:48.065Z,14.90
2019-05-30T06:47:32.349Z,15.00
2019-05-30T06:50:17.252Z,15.10
2019-05-30T06:53:02.624Z,15.20
2019-05-30T06:55:56.498Z,15.30
2019-05-30T06:58:48.515Z,15.40
2019-05-30T07:01:27.969Z,15.50
2019-05-30T07:04:13.056Z,15.70
2019-05-30T07:06:58.621Z,15.80
2019-05-30T07:09:43.574Z,15.90
2019-05-30T07:12:28.987Z,16.00
2019-05-30T07:15:23.252Z,16.10
2019-05-30T07:18:16.740Z,16.20
2019-05-30T07:21:01.641Z,16.30
2019-05-30T07:23:47.694Z,16.40
2019-05-30T07:26:32.642Z,16.50
2019-05-30T07:29:18.019Z,16.60
2019-05-30T07:32:13.478Z,16.70
2019-05-30T07:35:07.730Z,16.80
2019-05-30T07:38:01.931Z,16.90
2019-05-30T07:40:55.774Z,17.00
2019-05-30T07:43:40.575Z,17.10
2019-05-30T07:46:25.306Z,17.10
2019-05-30T07:49:10.152Z,17.20
2019-05-30T07:51:54.838Z,17.40
2019-05-30T07:54:39.934Z,17.50
2019-05-30T07:57:26.057Z,17.70
2019-05-30T08:00:10.974Z,17.80
2019-05-30T08:02:55.386Z,17.90
2019-05-30T08:05:40.035Z,18.10
2019-05-30T08:08:24.678Z,18.10
2019-05-30T08:11:10.409Z,18.20
2019-05-30T08:14:04.888Z,18.30
2019-05-30T08:16:58.604Z,18.30
2019-05-30T08:19:44.594Z,18.40
2019-05-30T08:22:29.927Z,18.40
2019-05-30T08:25:25.102Z,18.40
2019-05-30T08:28:09.830Z,18.50
2019-05-30T08:30:56.805Z,18.60
2019-05-30T08:33:41.598Z,18.60
2019-05-30T08:36:35.714Z,18.70
2019-05-30T08:39:29.618Z,18.80
2019-05-30T08:42:15.222Z,18.80
2019-05-30T08:45:00.081Z,18.80
2019-05-30T08:47:44.899Z,18.80
2019-05-30T08:50:30.236Z,19.00
2019-05-30T08:53:15.205Z,19.00
2019-05-30T08:56:00.023Z,19.20
2019-05-30T08:58:44.843Z,19.20
2019-05-30T09:01:29.950Z,19.30
2019-05-30T09:04:15.678Z,19.40
2019-05-30T09:07:00.269Z,19.50
2019-05-30T09:09:55.335Z,19.70
2019-05-30T09:12:49.661Z,19.80
2019-05-30T09:15:34.718Z,19.90
2019-05-30T09:18:19.407Z,20.00
2019-05-30T09:21:04.167Z,20.00
2019-05-30T09:24:01.087Z,20.10
2019-05-30T09:26:48.284Z,20.20
2019-05-30T09:29:30.946Z,20.30
2019-05-30T09:32:24.183Z,20.40
2019-05-30T09:35:09.176Z,20.40
2019-05-30T09:37:54.088Z,20.40
2019-05-30T09:40:39.139Z,20.50
2019-05-30T09:43:25.634Z,20.50
2019-05-30T09:46:19.463Z,20.50
2019-05-30T09:49:04.270Z,20.60
2019-05-30T09:51:49.004Z,20.50
2019-05-30T09:54:33.603Z,20.50
2019-05-30T09:57:18.783Z,20.60
2019-05-30T10:00:03.341Z,20.80
2019-05-30T10:02:48.854Z,20.80
2019-05-30T10:05:33.630Z,20.90
2019-05-30T10:08:27.098Z,21.00
2019-05-30T10:11:11.654Z,21.10
2019-05-30T10:13:56.909Z,21.10
2019-05-30T10:16:41.515Z,20.90
2019-05-30T10:19:26.270Z,20.70
2019-05-30T10:22:10.982Z,20.60
2019-05-30T10:24:55.742Z,20.30
2019-05-30T10:27:40.752Z,20.10
2019-05-30T10:30:25.469Z,20.00
2019-05-30T10:33:10.410Z,19.80
2019-05-30T10:35:54.769Z,19.80
2019-05-30T10:38:39.233Z,19.90
2019-05-30T10:41:24.047Z,20.00
2019-05-30T10:44:08.791Z,20.30
2019-05-30T10:47:02.140Z,20.60
2019-05-30T10:49:48.533Z,21.10
2019-05-30T10:52:42.758Z,21.60
2019-05-30T10:55:28.450Z,21.90
2019-05-30T10:58:12.961Z,22.30
2019-05-30T11:01:06.363Z,22.60
2019-05-30T11:03:52.522Z,22.90
2019-05-30T11:06:37.430Z,23.10
2019-05-30T11:09:22.419Z,23.30
2019-05-30T11:12:06.970Z,23.60
2019-05-30T11:14:51.581Z,23.90
2019-05-30T11:17:36.467Z,24.10
2019-05-30T11:20:21.253Z,24.30
2019-05-30T11:23:06.450Z,24.10
2019-05-30T11:25:50.982Z,24.00
2019-05-30T11:28:35.390Z,23.90
2019-05-30T11:31:19.962Z,24.00
2019-05-30T11:34:13.530Z,24.20
2019-05-30T11:36:59.262Z,24.30
2019-05-30T11:39:44.764Z,24.30
2019-05-30T11:42:29.726Z,24.40
2019-05-30T11:45:23.814Z,24.40
2019-05-30T11:48:17.966Z,24.10
2019-05-30T11:51:11.943Z,23.70
2019-05-30T11:53:57.921Z,23.70
2019-05-30T11:56:42.698Z,23.80
2019-05-30T11:59:27.376Z,23.70
2019-05-30T12:02:13.003Z,23.60
2019-05-30T12:05:06.810Z,23.90
2019-05-30T12:07:52.832Z,24.20
2019-05-30T12:10:37.649Z,24.50
2019-05-30T12:13:22.147Z,24.80
2019-05-30T12:16:07.280Z,24.90
2019-05-30T12:18:53.860Z,24.90
2019-05-30T12:21:38.948Z,24.70
2019-05-30T12:24:23.841Z,24.50
2019-05-30T12:27:17.632Z,24.60
2019-05-30T12:30:02.666Z,24.60
2019-05-30T12:32:56.535Z,24.80
2019-05-30T12:35:41.464Z,25.30
2019-05-30T12:38:26.297Z,25.70
2019-05-30T12:41:11.631Z,25.90
2019-05-30T12:44:05.403Z,26.20
2019-05-30T12:46:50.254Z,26.50
2019-05-30T12:49:35.010Z,26.60
2019-05-30T12:52:19.922Z,26.60
2019-05-30T12:55:04.789Z,26.40
2019-05-30T12:57:58.634Z,26.30
2019-05-30T13:00:44.053Z,26.00
2019-05-30T13:03:38.034Z,25.90
2019-05-30T13:06:32.087Z,25.80
2019-05-30T13:09:25.774Z,25.50
2019-05-30T13:12:10.702Z,25.10
2019-05-30T13:14:55.634Z,24.90
2019-05-30T13:17:40.732Z,24.90
2019-05-30T13:20:34.554Z,24.80
2019-05-30T13:23:19.694Z,24.50
2019-05-30T13:26:13.403Z,24.30
2019-05-30T13:28:58.230Z,24.20
2019-05-30T13:31:42.917Z,24.20
2019-05-30T13:34:27.675Z,24.10
2019-05-30T13:37:12.667Z,23.90
2019-05-30T13:39:57.915Z,23.60
2019-05-30T13:42:51.671Z,23.40
2019-05-30T13:45:36.565Z,23.40
2019-05-30T13:48:21.246Z,23.40
2019-05-30T13:51:07.096Z,23.60
2019-05-30T13:53:52.250Z,23.50
2019-05-30T13:56:37.122Z,23.60
2019-05-30T13:59:21.974Z,24.00
2019-05-30T14:02:08.195Z,24.50
2019-05-30T14:04:53.463Z,25.10
2019-05-30T14:07:47.510Z,25.50
2019-05-30T14:10:32.179Z,25.80
2019-05-30T14:13:17.052Z,26.20
2019-05-30T14:16:02.762Z,26.50
2019-05-30T14:18:47.730Z,26.80
2019-05-30T14:21:33.010Z,27.20
2019-05-30T14:24:17.900Z,27.50
2019-05-30T14:27:03.434Z,27.80
2019-05-30T14:29:48.127Z,27.70
2019-05-30T14:32:33.286Z,27.70
2019-05-30T14:35:18.606Z,27.40
2019-05-30T14:38:04.599Z,27.20
2019-05-30T14:40:49.645Z,27.20
2019-05-30T14:43:34.986Z,27.00
2019-05-30T14:46:28.886Z,26.80
2019-05-30T14:49:13.646Z,26.70
2019-05-30T14:51:58.640Z,26.30
2019-05-30T14:54:52.343Z,26.00
2019-05-30T14:57:37.061Z,25.60
2019-05-30T15:00:22.154Z,25.40
2019-05-30T15:03:09.129Z,25.20
2019-05-30T15:06:02.805Z,24.90
2019-05-30T15:08:56.655Z,24.60
2019-05-30T15:11:41.994Z,24.40
2019-05-30T15:14:35.894Z,24.20
2019-05-30T15:17:29.623Z,24.10
2019-05-30T15:20:14.689Z,24.10
2019-05-30T15:22:59.730Z,24.10
2019-05-30T15:25:53.490Z,24.20
2019-05-30T15:28:38.081Z,24.20
2019-05-30T15:31:22.865Z,24.20
2019-05-30T15:34:08.488Z,24.30
2019-05-30T15:37:02.171Z,24.60
2019-05-30T15:39:46.822Z,25.00
2019-05-30T15:42:31.413Z,25.30
2019-05-30T15:45:16.368Z,25.50
2019-05-30T15:48:01.222Z,25.70
2019-05-30T15:50:46.330Z,25.90
2019-05-30T15:53:40.743Z,26.00
2019-05-30T15:56:34.586Z,26.00
2019-05-30T15:59:29.027Z,26.00
2019-05-30T16:02:22.575Z,26.00
2019-05-30T16:05:07.066Z,25.80
2019-05-30T16:07:51.818Z,25.60
2019-05-30T16:10:36.973Z,25.30
2019-05-30T16:13:22.070Z,25.10
2019-05-30T16:16:15.951Z,24.90
2019-05-30T16:19:15.085Z,24.90
2019-05-30T16:21:47.782Z,24.90
2019-05-30T16:24:41.255Z,24.90
2019-05-30T16:27:26.792Z,24.80
2019-05-30T16:30:18.323Z,24.90
2019-05-30T16:33:08.134Z,25.00
2019-05-30T16:35:52.735Z,25.20
2019-05-30T16:38:37.797Z,25.30
2019-05-30T16:41:22.798Z,25.20
2019-05-30T16:44:07.670Z,25.00
2019-05-30T16:47:01.798Z,24.90
2019-05-30T16:49:55.775Z,24.90
2019-05-30T16:52:40.888Z,25.00
2019-05-30T16:55:34.570Z,24.90
2019-05-30T16:58:20.310Z,24.70
2019-05-30T17:01:05.591Z,24.60
2019-05-30T17:03:50.904Z,24.50
2019-05-30T17:06:44.663Z,24.40
2019-05-30T17:09:29.708Z,24.30
2019-05-30T17:12:15.410Z,24.10
2019-05-30T17:15:00.438Z,23.80
2019-05-30T17:17:46.133Z,23.60
2019-05-30T17:20:39.834Z,23.50
2019-05-30T17:23:24.859Z,23.50
2019-05-30T17:26:19.160Z,23.50
2019-05-30T17:29:13.004Z,23.50
2019-05-30T17:31:57.660Z,23.30
2019-05-30T17:34:42.090Z,23.10
2019-05-30T17:37:28.527Z,23.10
2019-05-30T17:40:13.650Z,23.10
2019-05-30T17:42:58.907Z,23.10
2019-05-30T17:45:52.566Z,23.10
2019-05-30T17:48:37.130Z,22.90
2019-05-30T17:51:22.064Z,22.80
2019-05-30T17:54:07.175Z,22.80
2019-05-30T17:57:00.952Z,22.70
2019-05-30T17:59:45.888Z,22.60
2019-05-30T18:02:30.506Z,22.50
2019-05-30T18:05:15.275Z,22.40
2019-05-30T18:08:00.111Z,22.50
2019-05-30T18:10:53.433Z,22.50
2019-05-30T18:13:31.602Z,22.50
2019-05-30T18:16:15.942Z,22.40
2019-05-30T18:19:01.289Z,22.30
2019-05-30T18:21:45.912Z,22.10
2019-05-30T18:24:31.834Z,22.00
2019-05-30T18:27:16.227Z,22.00
2019-05-30T18:30:09.923Z,21.90
2019-05-30T18:33:04.074Z,21.60
2019-05-30T18:35:57.762Z,21.50
2019-05-30T18:38:42.696Z,21.60
2019-05-30T18:41:27.422Z,21.40
2019-05-30T18:44:11.956Z,21.40
2019-05-30T18:46:56.602Z,21.40
2019-05-30T18:49:41.018Z,21.40
2019-05-30T18:52:34.464Z,21.30
2019-05-30T18:55:19.240Z,21.30
2019-05-30T18:58:07.448Z,21.20
2019-05-30T19:00:59.806Z,21.20
2019-05-30T19:03:44.640Z,21.10
2019-05-30T19:06:30.061Z,21.10
2019-05-30T19:09:24.809Z,21.10
2019-05-30T19:12:09.796Z,21.10
2019-05-30T19:14:54.940Z,21.00
2019-05-30T19:17:39.906Z,20.90
2019-05-30T19:20:33.871Z,20.90
2019-05-30T19:23:28.017Z,20.90
2019-05-30T19:26:21.901Z,20.80
2019-05-30T19:29:06.906Z,20.70
2019-05-30T19:31:51.752Z,20.60
2019-05-30T19:34:37.032Z,20.50
2019-05-30T19:37:21.654Z,20.50
2019-05-30T19:40:15.495Z,20.50
2019-05-30T19:43:00.290Z,20.30
2019-05-30T19:45:45.230Z,20.20
2019-05-30T19:48:39.308Z,20.00
2019-05-30T19:51:33.277Z,20.00
2019-05-30T19:54:18.644Z,20.00
2019-05-30T19:57:11.739Z,20.10
2019-05-30T19:59:57.490Z,20.00
2019-05-30T20:02:51.174Z,19.80
2019-05-30T20:05:36.683Z,19.70
2019-05-30T20:08:21.314Z,19.60
2019-05-30T20:11:14.784Z,19.50
2019-05-30T20:14:00.102Z,19.30
2019-05-30T20:16:53.807Z,19.10
2019-05-30T20:19:39.993Z,19.00
2019-05-30T20:22:24.674Z,18.90
2019-05-30T20:25:09.433Z,18.80
2019-05-30T20:27:54.243Z,18.80
2019-05-30T20:30:39.267Z,18.70
2019-05-30T20:33:23.868Z,18.70
2019-05-30T20:36:08.846Z,18.60
2019-05-30T20:38:53.782Z,18.50
2019-05-30T20:41:38.966Z,18.40
2019-05-30T20:44:32.866Z,18.20
2019-05-30T20:47:18.175Z,18.20
2019-05-30T20:50:14.626Z,18.10
2019-05-30T20:53:07.194Z,18.00
2019-05-30T20:55:51.751Z,18.00
2019-05-30T20:58:37.461Z,18.00
2019-05-30T21:01:31.430Z,18.10
2019-05-30T21:04:24.960Z,18.00
2019-05-30T21:07:09.653Z,18.00
2019-05-30T21:09:54.113Z,18.10
2019-05-30T21:12:41.840Z,18.00
2019-05-30T21:15:25.640Z,18.00
2019-05-30T21:18:10.356Z,18.10
2019-05-30T21:20:55.833Z,18.00
2019-05-30T21:23:42.422Z,17.90
2019-05-30T21:26:36.703Z,17.70
2019-05-30T21:29:30.269Z,17.60
2019-05-30T21:32:14.982Z,17.50
2019-05-30T21:34:59.846Z,17.50
2019-05-30T21:37:45.829Z,17.30
2019-05-30T21:40:30.911Z,17.20
2019-05-30T21:43:15.182Z,17.30
2019-05-30T21:45:59.764Z,17.20
2019-05-30T21:48:53.178Z,17.10
2019-05-30T21:51:39.105Z,17.10
2019-05-30T21:54:23.899Z,17.00
2019-05-30T21:57:08.839Z,17.00
2019-05-30T21:59:53.866Z,16.90
2019-05-30T22:02:40.236Z,16.90
2019-05-30T22:05:26.377Z,16.90
2019-05-30T22:08:11.426Z,16.90
2019-05-30T22:10:56.802Z,16.80
2019-05-30T22:13:52.022Z,16.70
2019-05-30T22:16:37.317Z,16.70
2019-05-30T22:19:31.138Z,16.70
2019-05-30T22:22:16.062Z,16.70
2019-05-30T22:25:00.854Z,16.60
2019-05-30T22:27:46.811Z,16.60
2019-05-30T22:30:31.622Z,16.60
2019-05-30T22:33:16.699Z,16.60
2019-05-30T22:36:01.690Z,16.60
2019-05-30T22:38:46.790Z,16.60
2019-05-30T22:41:40.866Z,16.60
2019-05-30T22:44:34.857Z,16.50
2019-05-30T22:47:28.631Z,16.50
2019-05-30T22:50:13.406Z,16.50
2019-05-30T22:52:58.226Z,16.40
2019-05-30T22:55:43.279Z,16.40
2019-05-30T22:58:37.630Z,16.40
2019-05-30T23:01:31.317Z,16.40
2019-05-30T23:04:16.237Z,16.40
2019-05-30T23:07:01.083Z,16.30
2019-05-30T23:09:45.682Z,16.40
2019-05-30T23:12:30.738Z,16.40
2019-05-30T23:15:24.726Z,16.40
2019-05-30T23:18:09.699Z,16.40
2019-05-30T23:21:03.954Z,16.40
2019-05-30T23:23:58.358Z,16.40
2019-05-30T23:26:51.882Z,16.40
2019-05-30T23:29:37.898Z,16.40
2019-05-30T23:32:23.114Z,16.30
2019-05-30T23:35:08.031Z,16.40
2019-05-30T23:38:02.366Z,16.40
2019-05-30T23:40:48.932Z,16.50
2019-05-30T23:43:55.480Z,16.60
2019-05-30T23:46:29.172Z,16.60
2019-05-30T23:49:23.578Z,16.60
2019-05-30T23:52:17.250Z,16.60
2019-05-30T23:55:02.555Z,16.70
2019-05-30T23:57:56.604Z,16.70
